Terminal Aerodrome Forecast
Issued by NWS

Home | Current Version | Previous Version | Text Only | Print | Product List | Glossary On
Versions: 1 2 3 4 5 6 7 8 9 10 11 12 13 14 15 16
000
FTUS43 KEAX 220050 AAA
TAFMKC
TAF AMD
KMKC 220050Z 2201/2224 16008KT 6SM -SHRA VCTS OVC035CB
     FM220600 17009KT P6SM BKN040
     FM221300 20009KT 3SM -DZ VCSH OVC015
     FM221600 24013KT 4SM BR VCSH OVC015=

USA.gov is the U.S. government's official web portal to all federal, state and local government web resources and services.